Currently 65°F in Temecula, California, USA
65°F
93°F / 62°F
calm
0.00"
Tuesday, July 16, 2019 11:53 PM PDT

Temecula, California Weather Summary
Last 36 Hours

Temperature Winds Hourly Humidity Dewpoint
Time Report Norm Report Norm Max Gusts Precip. Rpt. Norm Rpt. Norm Pressure
1Tue 11:53 PM  65.2°F  68°F  calm  1 mph  4 mph  0.00"  90%  78%  62°F  60°F  29.88"
Tue 11:00 PM  66.5°F  69°F  calm  1 mph  9 mph  0.00"  88%  75%  63°F  60°F  29.86"
Tue 10:00 PM  69.6°F  71°F  4 mph S  2 mph  9 mph  0.00"  80%  71%  63°F  60°F  29.86"
Tue 09:00 PM  72.5°F  73°F  2 mph NE  3 mph  7 mph  0.00"  75%  65%  64°F  60°F  29.84"
Tue 08:00 PM  78.9°F  76°F  2 mph W  4 mph  11 mph  0.00"  58%  57%  63°F  59°F  29.82"
Tue 07:00 PM  85.9°F  80°F  4 mph SW  6 mph  14 mph  0.00"  44%  50%  61°F  59°F  29.80"
Tue 06:00 PM  87.5°F  84°F  6 mph SW  7 mph  18 mph  0.00"  41%  43%  60°F  59°F  29.78"
Tue 05:00 PM  89.3°F  87°F  9 mph SW  9 mph  17 mph  0.00"  39%  39%  60°F  58°F  29.80"
Tue 04:00 PM  91.1°F  88°F  9 mph SW  9 mph  17 mph  0.00"  35%  37%  59°F  58°F  29.81"
Tue 03:00 PM  90.6°F  89°F  10 mph SW  9 mph  20 mph  0.00"  37%  36%  60°F  58°F  29.83"
Tue 02:00 PM  91.3°F  89°F  11 mph SW  9 mph  19 mph  0.00"  37%  36%  60°F  58°F  29.84"
Tue 01:00 PM  92.9°F  88°F  9 mph SW  8 mph  18 mph  0.00"  34%  38%  59°F  59°F  29.85"
2Tue 12:59 PM  92.9°F  88°F  7 mph SW  8 mph  13 mph  ----  34%  38%  59°F  59°F  29.85"
Tue 12:00 PM  91.1°F  86°F  6 mph SW  7 mph  15 mph  0.00"  34%  41%  58°F  59°F  29.86"
Tue 11:00 AM  88.3°F  82°F  9 mph S  4 mph  13 mph  0.00"  34%  48%  56°F  60°F  29.87"
Tue 10:00 AM  81.7°F  76°F  calm  2 mph  4 mph  0.00"  40%  59%  54°F  61°F  29.88"
Tue 09:00 AM  74.0°F  71°F  2 mph NE  1 mph  2 mph  0.00"  54%  72%  56°F  61°F  29.88"
Tue 08:00 AM  65.9°F  66°F  calm  1 mph  none  0.00"  63%  82%  53°F  60°F  29.88"
Tue 07:00 AM  63.0°F  64°F  calm  calm  none  0.00"  78%  87%  56°F  59°F  29.87"
Tue 06:00 AM  62.3°F  63°F  calm  calm  none  0.00"  77%  87%  55°F  59°F  29.85"
3Tue 05:57 AM  62.2°F  63°F  calm  calm  none  ----  77%  87%  55°F  59°F  29.85"
Tue 05:00 AM  63.2°F  64°F  calm  calm  3 mph  0.00"  75%  86%  55°F  59°F  29.84"
Tue 04:00 AM  64.8°F  64°F  calm  calm  none  0.00"  71%  85%  55°F  59°F  29.84"
Tue 03:00 AM  65.9°F  65°F  calm  calm  1 mph  0.00"  68%  84%  55°F  60°F  29.85"
Tue 02:00 AM  67.5°F  66°F  calm  1 mph  2 mph  0.00"  69%  82%  57°F  60°F  29.86"
Tue 01:00 AM  69.2°F  66°F  calm  1 mph  2 mph  0.00"  67%  80%  57°F  60°F  29.87"
Tue 12:00 AM  71.8°F  67°F  calm  1 mph  1 mph  0.00"  63%  78%  58°F  60°F  29.88"
Mon 11:00 PM  74.5°F  69°F  calm  1 mph  4 mph  0.00"  58%  75%  58°F  60°F  29.87"
Mon 10:00 PM  77.1°F  70°F  2 mph NE  2 mph  9 mph  0.00"  55%  71%  59°F  60°F  29.87"
Mon 09:00 PM  79.1°F  73°F  4 mph S  3 mph  9 mph  0.00"  49%  65%  58°F  60°F  29.86"
Mon 08:00 PM  82.9°F  76°F  4 mph W  4 mph  13 mph  0.00"  43%  57%  57°F  59°F  29.85"
Mon 07:00 PM  90.2°F  80°F  7 mph S  6 mph  18 mph  0.00"  33%  50%  56°F  59°F  29.81"
Mon 06:00 PM  93.0°F  84°F  9 mph SW  7 mph  19 mph  0.00"  31%  43%  57°F  58°F  29.80"
Mon 05:00 PM  96.3°F  87°F  9 mph S  9 mph  18 mph  0.00"  25%  39%  54°F  58°F  29.82"
Mon 04:00 PM  95.9°F  88°F  9 mph S  9 mph  17 mph  0.00"  26%  37%  54°F  58°F  29.83"
Mon 03:00 PM  96.0°F  89°F  7 mph SW  9 mph  19 mph  0.00"  29%  36%  58°F  58°F  29.85"
Mon 02:00 PM  97.6°F  89°F  9 mph SW  9 mph  16 mph  0.00"  26%  36%  56°F  58°F  29.87"
Mon 01:00 PM  97.3°F  88°F  7 mph S  8 mph  10 mph  0.00"  27%  38%  56°F  58°F  29.88"
Mon 12:00 PM  95.8°F  86°F  4 mph SW  7 mph  11 mph  0.00"  28%  41%  56°F  59°F  29.91"

  1. Current weather data. No green row appears if the current weather data is also the high or low for the current day.
  2. High temperature for the current day.
  3. Low temperature for the current day.

The Temecula weather pages are a service of WeatherCurrents. Temecula, California is located in the Temecula Valley, in southwestern Riverside County, along the Interstate 15 highway. The Temecula Valley's rolling hills are home to the Temecula wine country, vineyards, golf courses, a casino resort, and Old Town Temecula.
Copyright ©2019  WeatherCurrents. All rights reserved. - Submit questions and comments - Privacy Policy

This page automatically refreshes every 10 minutes.